Time;durP1;ratioP1;P1;durP2;ratioP2;P2;SDS_P1;SDS_P2;PMS_P1;PMS_P2;Temp;Humidity;BMP_temperature;BMP_pressure;BME280_temperature;BME280_humidity;BME280_pressure;Samples;Min_cycle;Max_cycle;Signal;HPM_P1;HPM_P2
2021/12/16 00:07:08;;;;;;;14.00;8.95;;;;;;;9.25;100.00;100908.67;1821213;77;21486;-66
2021/12/16 00:09:20;;;;;;;14.28;9.95;;;;;;;9.01;100.00;100917.18;1820203;78;21429;-63
2021/12/16 00:33:37;;;;;;;13.08;8.93;;;;;;;9.05;100.00;100910.38;1824636;78;20987;-61
2021/12/16 00:36:01;;;;;;;13.80;9.10;;;;;;;9.21;100.00;100915.16;1824226;78;21210;-63
2021/12/16 00:38:29;;;;;;;11.85;8.58;;;;;;;9.13;100.00;100911.70;1821387;78;20967;-68
2021/12/16 00:40:59;;;;;;;16.87;11.33;;;;;;;9.07;100.00;100915.75;1818182;78;22350;-64
2021/12/16 00:43:45;;;;;;;;;;;;;;;9.27;100.00;100916.30;1798164;79;21006;-64
2021/12/16 00:54:11;;;;;;;12.28;8.18;;;;;;;9.32;100.00;100923.62;1795397;78;20967;-65
2021/12/16 00:56:52;;;;;;;12.07;7.87;;;;;;;9.25;100.00;100923.47;1801737;78;21027;-63
2021/12/16 00:59:19;;;;;;;11.65;7.60;;;;;;;9.46;100.00;100918.63;1797460;79;21059;-65
2021/12/16 01:02:06;;;;;;;12.35;8.40;;;;;;;9.52;100.00;100920.28;1801584;79;22114;-67
2021/12/16 01:35:14;;;;;;;10.63;7.05;;;;;;;9.45;100.00;100917.00;1790820;78;21559;-66
2021/12/16 01:45:41;;;;;;;10.93;7.50;;;;;;;10.15;100.00;100907.94;1780833;79;21049;-63
2021/12/16 01:50:32;;;;;;;10.48;7.78;;;;;;;10.27;100.00;100916.29;1785821;78;21073;-63
2021/12/16 01:55:58;;;;;;;10.70;7.67;;;;;;;10.46;98.07;100910.72;1779859;79;21155;-67
2021/12/16 01:58:24;;;;;;;10.80;6.97;;;;;;;10.64;92.27;100901.37;1784576;79;21065;-65
2021/12/16 02:01:17;;;;;;;12.58;7.08;;;;;;;10.73;89.46;100907.39;1749409;80;21061;-65
2021/12/16 02:03:48;;;;;;;10.45;7.22;;;;;;;10.93;85.55;100914.64;1744259;80;21438;-63
2021/12/16 02:06:45;;;;;;;11.53;8.00;;;;;;;11.25;82.32;100922.02;1746337;80;21016;-63
2021/12/16 02:08:56;;;;;;;8.70;6.33;;;;;;;11.13;81.59;100924.66;1703707;82;21194;-66
2021/12/16 02:27:53;;;;;;;9.80;6.20;;;;;;;10.16;94.12;100924.73;1745109;80;20980;-68
2021/12/16 02:32:57;;;;;;;8.25;5.75;;;;;;;10.30;94.48;100923.26;1733173;82;21123;-65
2021/12/16 02:37:51;;;;;;;8.13;5.50;;;;;;;10.32;90.67;100917.90;1731556;82;21029;-68
2021/12/16 02:40:18;;;;;;;7.83;5.53;;;;;;;10.31;89.59;100911.87;1732687;82;22026;-64
2021/12/16 02:50:51;;;;;;;8.90;6.17;;;;;;;8.88;99.73;100920.72;1816452;78;20822;-66
2021/12/16 02:53:18;;;;;;;7.47;5.20;;;;;;;9.47;100.00;100917.67;1819080;78;21454;-66
2021/12/16 02:55:46;;;;;;;8.20;5.40;;;;;;;8.82;100.00;100925.70;1784578;78;22140;-62
2021/12/16 02:58:15;;;;;;;7.65;5.03;;;;;;;8.68;100.00;100924.52;1818929;78;21512;-63
2021/12/16 03:00:45;;;;;;;9.65;5.92;;;;;;;8.94;100.00;100926.61;1820185;78;21076;-65
2021/12/16 03:03:16;;;;;;;9.88;6.42;;;;;;;9.12;100.00;100926.49;1818904;78;21077;-68
2021/12/16 03:05:43;;;;;;;8.40;5.92;;;;;;;9.29;100.00;100927.88;1819218;78;21011;-64
2021/12/16 03:08:12;;;;;;;8.13;5.42;;;;;;;9.03;100.00;100935.24;1819147;78;20884;-63
2021/12/16 03:13:25;;;;;;;9.00;5.92;;;;;;;9.22;100.00;100943.28;1819485;78;21124;-67
2021/12/16 03:21:00;;;;;;;8.03;5.28;;;;;;;10.12;99.74;100944.76;1820108;78;21587;-64
2021/12/16 03:23:42;;;;;;;8.13;5.53;;;;;;;10.14;96.92;100948.81;1819286;78;21044;-63
2021/12/16 03:26:33;;;;;;;7.65;5.42;;;;;;;10.05;98.42;100953.70;1815944;78;21143;-64
2021/12/16 03:31:44;;;;;;;5.97;4.15;;;;;;;9.84;100.00;100945.54;1813051;78;20958;-64
2021/12/16 03:36:49;;;;;;;6.55;4.15;;;;;;;10.21;93.36;100943.77;1788024;78;21038;-65
2021/12/16 03:39:10;;;;;;;7.35;4.53;;;;;;;10.05;93.70;100941.17;1813418;78;21795;-66
2021/12/16 03:41:38;;;;;;;7.05;4.75;;;;;;;10.04;93.17;100943.42;1820488;78;20927;-65
2021/12/16 03:44:10;;;;;;;7.05;4.62;;;;;;;10.13;93.36;100935.95;1815734;78;21410;-68
2021/12/16 03:46:45;;;;;;;6.28;3.95;;;;;;;9.80;97.21;100935.94;1816671;78;21109;-66
2021/12/16 03:49:19;;;;;;;6.75;4.40;;;;;;;9.65;98.90;100937.54;1819825;78;20996;-63
2021/12/16 03:52:06;;;;;;;8.30;4.70;;;;;;;9.71;99.54;100928.61;1815926;78;22473;-67
2021/12/16 03:54:41;;;;;;;6.50;4.40;;;;;;;9.50;100.00;100923.84;1809165;78;20932;-66
2021/12/16 03:57:11;;;;;;;6.42;4.15;;;;;;;9.68;99.37;100927.63;1819788;78;20995;-67
2021/12/16 03:59:39;;;;;;;6.70;4.58;;;;;;;9.77;98.30;100925.83;1810486;79;21137;-69
2021/12/16 04:02:20;;;;;;;6.60;4.30;;;;;;;9.83;97.96;100930.41;1755768;78;21447;-65
2021/12/16 04:04:48;;;;;;;6.62;4.50;;;;;;;10.08;95.11;100933.04;1742715;81;21211;-64
2021/12/16 04:07:15;;;;;;;6.90;4.40;;;;;;;10.24;91.97;100930.42;1744652;81;21095;-63
2021/12/16 04:10:05;;;;;;;7.87;5.55;;;;;;;10.47;89.27;100923.57;1746448;82;20901;-63
2021/12/16 04:12:34;;;;;;;7.08;4.85;;;;;;;10.74;86.07;100918.95;1736067;82;21466;-63
2021/12/16 04:15:09;;;;;;;8.00;4.95;;;;;;;10.50;87.37;100925.54;1744284;80;21007;-64
2021/12/16 04:17:38;;;;;;;7.10;4.53;;;;;;;10.28;90.33;100925.23;1780110;80;21376;-62
2021/12/16 04:20:09;;;;;;;8.08;4.58;;;;;;;10.34;85.91;100931.09;1780705;79;20944;-63
2021/12/16 04:22:42;;;;;;;;;;;;;;;10.32;86.31;100930.93;1783314;80;21202;-63
2021/12/16 04:25:19;;;;;;;7.53;4.65;;;;;;;10.03;87.77;100940.51;1779716;80;20433;-65
2021/12/16 04:27:48;;;;;;;6.60;4.42;;;;;;;10.21;86.51;100932.85;1761138;79;21039;-66
2021/12/16 04:30:16;;;;;;;7.85;4.58;;;;;;;9.87;89.71;100936.92;1767199;79;21140;-64
2021/12/16 04:32:45;;;;;;;7.03;4.50;;;;;;;9.91;89.27;100938.72;1766928;79;20953;-67
2021/12/16 04:35:12;;;;;;;8.83;5.37;;;;;;;10.00;87.53;100939.06;1777497;79;21113;-64
2021/12/16 04:37:40;;;;;;;8.15;5.50;;;;;;;9.90;89.29;100937.91;1779966;79;21078;-64
2021/12/16 04:40:10;;;;;;;9.78;5.87;;;;;;;9.75;90.39;100936.42;1780016;79;21524;-63
2021/12/16 04:42:38;;;;;;;8.68;5.60;;;;;;;9.88;90.33;100926.82;1776849;79;21140;-64
2021/12/16 04:45:09;;;;;;;8.40;5.53;;;;;;;9.98;90.46;100928.79;1769458;79;20927;-67
2021/12/16 04:47:38;;;;;;;8.98;6.92;;;;;;;9.78;91.24;100930.58;1779691;80;21058;-64
2021/12/16 04:50:07;;;;;;;8.70;5.75;;;;;;;9.49;94.46;100935.23;1779687;80;21038;-64
2021/12/16 04:52:35;;;;;;;8.90;5.95;;;;;;;9.42;95.49;100931.63;1779291;79;20967;-64
2021/12/16 04:55:06;;;;;;;8.00;5.03;;;;;;;9.35;97.80;100934.53;1779379;80;20970;-67
2021/12/16 04:57:35;;;;;;;8.15;5.50;;;;;;;9.37;98.17;100932.60;1780008;79;22449;-64
2021/12/16 05:00:06;;;;;;;7.87;5.22;;;;;;;9.40;98.05;100935.38;1779975;80;20875;-66
2021/12/16 05:02:34;;;;;;;8.00;5.17;;;;;;;9.47;96.55;100938.49;1768973;80;21046;-65
2021/12/16 05:05:05;;;;;;;8.98;5.40;;;;;;;9.66;94.30;100933.95;1770581;79;21473;-65
2021/12/16 05:07:32;;;;;;;8.33;5.42;;;;;;;10.09;89.19;100933.36;1767718;80;21565;-64
2021/12/16 05:10:13;;;;;;;7.55;4.95;;;;;;;10.08;89.23;100933.04;1776884;80;22243;-63
2021/12/16 05:12:47;;;;;;;8.53;5.75;;;;;;;9.97;90.43;100940.19;1747881;80;21053;-64
2021/12/16 05:15:18;;;;;;;9.20;5.42;;;;;;;10.05;90.75;100944.59;1773006;79;21477;-64
2021/12/16 05:17:49;;;;;;;;;;;;;;;10.24;89.54;100946.05;1780128;78;21046;-65
2021/12/16 05:20:24;;;;;;;9.23;5.83;;;;;;;10.46;86.00;100947.20;1747777;80;21151;-66
2021/12/16 05:28:18;;;;;;;10.38;6.35;;;;;;;10.35;82.07;100937.12;1774340;78;21026;-66
2021/12/16 05:30:45;;;;;;;8.03;5.33;;;;;;;10.07;84.81;100946.52;1778306;80;21074;-66
2021/12/16 05:33:12;;;;;;;8.58;5.08;;;;;;;10.12;86.03;100953.88;1778699;80;21139;-66
2021/12/16 05:35:40;;;;;;;9.38;5.75;;;;;;;10.21;83.83;100947.67;1778367;80;21460;-65
2021/12/16 05:38:07;;;;;;;9.80;5.45;;;;;;;10.40;80.79;100938.23;1779735;80;20906;-66
2021/12/16 05:40:34;;;;;;;9.13;5.95;;;;;;;10.63;78.77;100938.86;1777930;80;20966;-65
2021/12/16 05:43:23;;;;;;;11.00;6.67;;;;;;;10.61;76.67;100944.74;1767884;80;20962;-65
2021/12/16 05:45:51;;;;;;;10.43;6.42;;;;;;;10.55;78.44;100951.42;1779735;80;21121;-66
2021/12/16 05:48:21;;;;;;;11.18;6.67;;;;;;;10.38;79.93;100948.03;1779203;80;20903;-65
2021/12/16 05:50:51;;;;;;;9.18;6.15;;;;;;;10.59;79.04;100946.69;1778689;80;20939;-66
2021/12/16 05:53:18;;;;;;;11.30;7.17;;;;;;;10.78;77.53;100946.31;1778818;80;21271;-67
2021/12/16 05:55:46;;;;;;;10.63;6.25;;;;;;;10.63;76.81;100951.89;1779079;80;21047;-65
2021/12/16 05:58:18;;;;;;;9.75;5.97;;;;;;;10.42;78.06;100946.72;1777670;80;21173;-67
2021/12/16 06:00:44;;;;;;;9.50;6.05;;;;;;;10.50;79.69;100942.48;1778041;80;21091;-66
2021/12/16 06:03:13;;;;;;;9.90;6.05;;;;;;;10.20;83.30;100943.45;1779094;80;20994;-65
2021/12/16 06:05:41;;;;;;;9.10;6.50;;;;;;;11.09;76.36;100932.52;1779297;80;20975;-65
2021/12/16 06:08:10;;;;;;;8.95;6.20;;;;;;;10.92;77.20;100925.25;1779422;80;20821;-64
2021/12/16 06:13:07;;;;;;;9.20;6.12;;;;;;;10.34;76.35;100928.50;1779154;80;22455;-65
2021/12/16 06:26:46;;;;;;;10.45;6.58;;;;;;;9.97;91.98;100928.96;1701840;80;21638;-64
2021/12/16 06:29:03;;;;;;;9.70;6.33;;;;;;;9.94;93.17;100921.47;1737936;80;20991;-66
2021/12/16 06:31:31;;;;;;;10.25;6.87;;;;;;;9.92;94.82;100923.41;1729422;80;21046;-64
2021/12/16 06:33:58;;;;;;;9.98;6.55;;;;;;;10.18;93.92;100916.23;1739010;82;20948;-64
2021/12/16 06:36:25;;;;;;;11.25;7.15;;;;;;;10.36;90.37;100914.80;1739964;82;22169;-64
2021/12/16 06:38:54;;;;;;;9.35;5.72;;;;;;;10.16;90.32;100917.40;1740855;80;21007;-64
2021/12/16 06:41:23;;;;;;;10.40;6.45;;;;;;;10.34;89.22;100916.77;1738380;80;21011;-64
2021/12/16 06:44:22;;;;;;;12.43;7.17;;;;;;;10.55;86.02;100907.59;1741047;80;21114;-63
2021/12/16 06:46:46;;;;;;;13.62;8.50;;;;;;;10.70;83.16;100910.64;1722923;81;20931;-64
2021/12/16 06:49:16;;;;;;;10.72;7.28;;;;;;;10.36;84.43;100916.59;1757560;80;21159;-67
2021/12/16 06:51:55;;;;;;;12.28;7.85;;;;;;;10.33;85.05;100913.81;1758944;80;21093;-63
2021/12/16 06:54:34;;;;;;;12.90;7.90;;;;;;;10.18;84.75;100921.95;1758093;80;21136;-64
2021/12/16 06:57:18;;;;;;;13.38;8.40;;;;;;;10.36;86.02;100920.00;1720205;82;21038;-66
2021/12/16 06:59:38;;;;;;;13.72;9.40;;;;;;;10.32;86.86;100921.81;1755236;80;21469;-64
2021/12/16 07:02:09;;;;;;;12.63;7.87;;;;;;;10.12;90.38;100929.13;1751243;80;21164;-64
2021/12/16 07:04:32;;;;;;;14.33;8.23;;;;;;;10.20;89.48;100931.23;1745703;81;21056;-67
2021/12/16 07:06:59;;;;;;;15.83;9.28;;;;;;;10.07;88.65;100932.69;1748289;79;21004;-63
2021/12/16 07:09:26;;;;;;;14.70;10.15;;;;;;;10.13;88.63;100934.66;1758347;80;22389;-62
2021/12/16 07:11:56;;;;;;;14.93;9.43;;;;;;;10.24;87.34;100933.02;1758273;81;20994;-63
2021/12/16 07:14:35;;;;;;;13.93;9.63;;;;;;;10.40;84.36;100934.83;1762766;79;21128;-67
2021/12/16 07:16:57;;;;;;;14.30;9.53;;;;;;;10.00;87.59;100936.45;1778561;80;21065;-64
2021/12/16 07:19:24;;;;;;;14.43;9.65;;;;;;;10.29;88.09;100937.77;1778929;80;21003;-62
2021/12/16 07:21:52;;;;;;;15.43;10.03;;;;;;;10.49;83.38;100940.34;1778994;80;20978;-63
2021/12/16 07:24:20;;;;;;;16.32;10.00;;;;;;;10.60;82.72;100943.09;1778703;80;20895;-65
2021/12/16 07:26:47;;;;;;;14.78;8.43;;;;;;;10.89;78.08;100940.73;1778313;80;21142;-67
2021/12/16 07:29:14;;;;;;;13.25;8.80;;;;;;;10.72;75.89;100939.18;1778695;80;21048;-64
2021/12/16 07:31:42;;;;;;;13.72;9.35;;;;;;;10.76;78.01;100945.69;1779086;80;20876;-65
2021/12/16 07:34:10;;;;;;;13.93;8.45;;;;;;;11.03;75.59;100951.47;1778796;80;21014;-65
2021/12/16 07:36:38;;;;;;;12.65;7.83;;;;;;;9.75;90.62;100959.05;1778220;80;20911;-64
2021/12/16 07:39:07;;;;;;;12.37;7.55;;;;;;;9.67;95.44;100959.03;1778201;80;22527;-65
2021/12/16 07:41:35;;;;;;;12.30;8.43;;;;;;;10.49;84.98;100954.67;1779003;80;21129;-64
2021/12/16 07:44:10;;;;;;;12.53;7.95;;;;;;;10.32;88.09;100960.90;1778817;80;21025;-66
2021/12/16 07:46:46;;;;;;;13.60;9.48;;;;;;;9.25;96.02;100962.00;1768045;80;21503;-67
2021/12/16 07:49:17;;;;;;;13.78;8.43;;;;;;;8.92;100.00;100962.82;1778518;80;22305;-67
2021/12/16 07:51:45;;;;;;;13.88;8.48;;;;;;;8.67;100.00;100958.77;1779948;79;21781;-66
2021/12/16 07:54:13;;;;;;;12.33;7.92;;;;;;;8.96;100.00;100957.15;1778253;79;20974;-67
2021/12/16 07:56:41;;;;;;;13.15;8.28;;;;;;;8.85;100.00;100957.41;1776596;79;21262;-66
2021/12/16 07:59:08;;;;;;;12.15;7.40;;;;;;;8.86;100.00;100961.64;1778979;80;20930;-65
2021/12/16 08:01:40;;;;;;;11.30;7.33;;;;;;;8.50;100.00;100957.86;1775786;79;21022;-66
2021/12/16 08:04:10;;;;;;;14.05;9.18;;;;;;;8.44;100.00;100957.16;1777952;80;21159;-66
2021/12/16 08:06:38;;;;;;;13.48;9.35;;;;;;;8.50;100.00;100959.64;1778644;79;21066;-67
2021/12/16 08:09:08;;;;;;;12.37;8.38;;;;;;;8.66;100.00;100958.44;1777682;80;21018;-65
2021/12/16 08:11:37;;;;;;;11.50;7.47;;;;;;;8.66;100.00;100962.83;1779066;80;20832;-66
2021/12/16 08:14:06;;;;;;;11.43;7.37;;;;;;;8.73;100.00;100962.55;1778295;80;20994;-66
2021/12/16 08:16:34;;;;;;;11.68;7.22;;;;;;;8.56;100.00;100962.11;1778892;80;21337;-67
2021/12/16 08:19:03;;;;;;;13.62;7.78;;;;;;;8.91;100.00;100959.89;1776983;79;20950;-67
2021/12/16 08:21:30;;;;;;;12.30;7.87;;;;;;;9.19;100.00;100956.59;1779657;79;21480;-65
2021/12/16 08:23:59;;;;;;;12.15;7.20;;;;;;;9.21;100.00;100954.67;1781901;79;21090;-67
2021/12/16 08:26:27;;;;;;;12.00;7.95;;;;;;;9.59;100.00;100946.81;1772175;79;21128;-67
2021/12/16 08:28:54;;;;;;;12.68;7.30;;;;;;;8.76;100.00;100950.06;1778832;79;22093;-65
2021/12/16 08:31:22;;;;;;;14.25;8.13;;;;;;;8.69;100.00;100949.53;1775454;79;22222;-65
2021/12/16 08:33:49;;;;;;;28.12;18.62;;;;;;;8.77;100.00;100948.28;1779991;79;21563;-67
2021/12/16 08:36:16;;;;;;;32.60;20.12;;;;;;;8.69;100.00;100950.83;1778641;80;22216;-65
2021/12/16 08:38:44;;;;;;;11.50;7.45;;;;;;;8.60;100.00;100951.28;1778378;80;20956;-66
2021/12/16 08:41:24;;;;;;;16.20;10.65;;;;;;;8.57;100.00;100947.67;1778952;80;21062;-65
2021/12/16 08:43:51;;;;;;;13.30;7.80;;;;;;;8.65;100.00;100937.81;1776360;79;20896;-67
2021/12/16 08:46:20;;;;;;;10.48;6.40;;;;;;;8.66;100.00;100933.75;1777722;79;22331;-68
2021/12/16 08:48:49;;;;;;;10.15;6.22;;;;;;;8.71;100.00;100938.48;1779157;79;21490;-66
2021/12/16 08:51:21;;;;;;;10.60;6.42;;;;;;;8.72;100.00;100929.25;1778218;79;20940;-66
2021/12/16 08:53:51;;;;;;;11.80;6.20;;;;;;;8.60;100.00;100920.55;1778119;80;21826;-67
2021/12/16 08:56:19;;;;;;;11.38;6.67;;;;;;;8.53;100.00;100915.98;1777297;80;21089;-67
2021/12/16 08:58:46;;;;;;;13.28;8.68;;;;;;;8.76;100.00;100916.77;1778996;80;21007;-66
2021/12/16 09:01:17;;;;;;;14.80;8.50;;;;;;;8.74;100.00;100912.19;1773813;79;21065;-67
2021/12/16 09:03:46;;;;;;;12.37;7.83;;;;;;;8.66;100.00;100908.25;1767469;80;20967;-67
2021/12/16 09:06:14;;;;;;;12.63;7.72;;;;;;;8.62;100.00;100908.23;1778012;80;21219;-66
2021/12/16 09:08:41;;;;;;;10.43;6.87;;;;;;;8.85;100.00;100901.52;1777534;80;22216;-65
2021/12/16 09:11:09;;;;;;;12.30;7.05;;;;;;;8.71;100.00;100894.30;1778819;80;21069;-66
2021/12/16 09:13:40;;;;;;;10.72;6.67;;;;;;;8.63;100.00;100892.47;1778126;79;21113;-67
2021/12/16 09:16:10;;;;;;;12.00;7.67;;;;;;;8.90;100.00;100886.29;1765318;80;21092;-65
2021/12/16 09:18:41;;;;;;;13.40;7.33;;;;;;;8.72;100.00;100879.86;1757681;80;21322;-67
2021/12/16 09:21:09;;;;;;;11.25;7.17;;;;;;;8.73;100.00;100871.58;1757345;80;21484;-67
2021/12/16 09:23:37;;;;;;;13.18;8.00;;;;;;;8.77;100.00;100869.80;1757071;81;21590;-67
2021/12/16 09:26:04;;;;;;;12.47;7.15;;;;;;;8.64;100.00;100869.92;1759059;80;20941;-66
2021/12/16 09:28:32;;;;;;;10.13;5.97;;;;;;;8.56;100.00;100864.66;1746751;81;21927;-65
2021/12/16 09:30:59;;;;;;;11.28;7.03;;;;;;;8.62;100.00;100854.95;1759491;80;21113;-65
2021/12/16 09:33:27;;;;;;;12.80;7.10;;;;;;;8.82;100.00;100854.22;1758974;80;20934;-66
2021/12/16 09:35:58;;;;;;;13.32;8.58;;;;;;;8.75;100.00;100851.42;1757886;80;21461;-65
2021/12/16 09:38:25;;;;;;;13.83;7.53;;;;;;;8.87;100.00;100846.30;1757937;81;21050;-67
2021/12/16 09:40:54;;;;;;;12.75;7.47;;;;;;;8.86;100.00;100836.03;1758077;81;20946;-65
2021/12/16 09:43:31;;;;;;;13.35;7.40;;;;;;;8.55;100.00;100834.45;1758437;80;21145;-66
2021/12/16 09:46:01;;;;;;;10.60;6.75;;;;;;;8.40;100.00;100833.73;1758045;81;21590;-65
2021/12/16 09:48:31;;;;;;;10.55;7.12;;;;;;;8.60;100.00;100825.70;1757143;80;21002;-67
2021/12/16 09:51:00;;;;;;;11.55;6.97;;;;;;;8.57;100.00;100823.44;1758219;80;21089;-66
2021/12/16 09:53:27;;;;;;;12.35;8.03;;;;;;;8.73;100.00;100822.19;1750467;80;21073;-66
2021/12/16 09:55:59;;;;;;;10.72;7.08;;;;;;;8.88;100.00;100818.02;1749170;80;21250;-66
2021/12/16 09:58:24;;;;;;;11.45;7.15;;;;;;;9.56;100.00;100809.67;1757555;80;21017;-67
2021/12/16 10:00:52;;;;;;;11.80;7.12;;;;;;;9.86;100.00;100802.50;1739279;82;20943;-66
2021/12/16 10:03:20;;;;;;;11.93;7.40;;;;;;;9.62;100.00;100798.13;1739077;82;21615;-66
2021/12/16 10:05:48;;;;;;;13.85;7.35;;;;;;;9.40;100.00;100790.48;1740019;80;22166;-67
2021/12/16 10:08:16;;;;;;;11.60;7.50;;;;;;;9.23;100.00;100796.63;1739664;82;21135;-67
2021/12/16 10:10:43;;;;;;;13.20;7.83;;;;;;;9.27;100.00;100795.33;1739826;80;20951;-67
2021/12/16 10:13:19;;;;;;;12.43;6.20;;;;;;;9.49;100.00;100783.48;1740057;80;21101;-67
2021/12/16 10:18:20;;;;;;;10.55;6.47;;;;;;;9.46;100.00;100779.41;1732662;80;21023;-66
2021/12/16 10:20:56;;;;;;;12.75;6.80;;;;;;;9.48;100.00;100785.27;1732435;82;21145;-67
2021/12/16 10:23:36;;;;;;;11.53;6.75;;;;;;;9.78;100.00;100788.19;1741549;81;21046;-67
2021/12/16 10:26:11;;;;;;;11.12;6.25;;;;;;;9.62;100.00;100789.48;1736590;81;20940;-67
2021/12/16 10:28:44;;;;;;;10.88;6.28;;;;;;;9.81;100.00;100785.73;1731522;81;21131;-68
2021/12/16 10:31:31;;;;;;;9.83;6.12;;;;;;;9.50;100.00;100782.00;1778833;80;21002;-66
2021/12/16 10:34:01;;;;;;;11.28;7.20;;;;;;;9.38;100.00;100784.61;1775940;80;21155;-66
2021/12/16 10:36:33;;;;;;;10.28;6.72;;;;;;;9.26;100.00;100798.42;1757472;80;20946;-65
2021/12/16 10:39:15;;;;;;;11.55;6.28;;;;;;;9.11;100.00;100799.22;1779955;80;20895;-65
2021/12/16 10:41:59;;;;;;;9.85;5.37;;;;;;;9.04;100.00;100802.13;1779434;80;21422;-67
2021/12/16 10:44:30;;;;;;;8.28;5.03;;;;;;;9.01;100.00;100794.16;1779143;80;20903;-67
2021/12/16 10:47:07;;;;;;;8.60;4.83;;;;;;;8.89;100.00;100793.64;1779789;80;21760;-67
2021/12/16 10:49:38;;;;;;;8.70;4.83;;;;;;;8.90;100.00;100788.79;1778102;80;21030;-69
2021/12/16 10:52:14;;;;;;;8.30;5.28;;;;;;;8.85;100.00;100800.13;1777277;80;21044;-67
2021/12/16 10:54:46;;;;;;;8.95;4.45;;;;;;;8.82;100.00;100793.13;1776863;80;21603;-67
2021/12/16 10:57:19;;;;;;;7.85;4.22;;;;;;;8.88;100.00;100789.91;1778573;80;20975;-66
2021/12/16 10:59:53;;;;;;;7.37;4.50;;;;;;;9.09;100.00;100790.75;1778099;80;22403;-67
2021/12/16 11:02:32;;;;;;;12.90;6.03;;;;;;;9.00;100.00;100790.74;1779001;80;20938;-68
2021/12/16 11:05:12;;;;;;;9.50;5.12;;;;;;;8.96;100.00;100786.84;1778346;80;20978;-67
2021/12/16 11:07:46;;;;;;;22.50;13.88;;;;;;;8.86;100.00;100782.25;1778823;80;21057;-66
2021/12/16 11:10:29;;;;;;;140.50;97.92;;;;;;;8.80;100.00;100780.80;1778445;80;21014;-65
2021/12/16 11:13:10;;;;;;;25.17;15.32;;;;;;;8.92;100.00;100779.03;1777445;79;21785;-68
2021/12/16 11:15:42;;;;;;;11.80;5.83;;;;;;;8.96;100.00;100773.83;1773428;80;22191;-64
2021/12/16 11:18:14;;;;;;;;;;;;;;;9.14;100.00;100756.80;1760465;80;21064;-65
2021/12/16 11:20:56;;;;;;;10.65;6.03;;;;;;;9.24;100.00;100755.33;1740306;82;20169;-68
2021/12/16 11:23:32;;;;;;;9.23;5.85;;;;;;;9.41;100.00;100758.27;1723875;81;21083;-66
2021/12/16 11:26:06;;;;;;;8.55;5.47;;;;;;;9.56;100.00;100761.53;1745230;82;21118;-68
2021/12/16 11:28:38;;;;;;;8.28;4.55;;;;;;;9.32;100.00;100759.72;1742034;80;20958;-66
2021/12/16 11:31:12;;;;;;;;;;;;;;;9.29;100.00;100753.08;1749649;80;20927;-67
2021/12/16 11:33:47;;;;;;;7.72;4.70;;;;;;;9.21;100.00;100754.38;1743382;80;20868;-69
2021/12/16 11:36:24;;;;;;;8.18;3.87;;;;;;;9.31;100.00;100752.41;1718912;81;21003;-68
2021/12/16 11:38:55;;;;;;;7.12;3.77;;;;;;;9.20;100.00;100743.13;1759516;80;21752;-68
2021/12/16 11:41:35;;;;;;;7.00;4.08;;;;;;;9.14;100.00;100742.50;1756271;80;22185;-68
2021/12/16 11:44:10;;;;;;;8.85;4.75;;;;;;;8.89;100.00;100744.24;1757966;80;21488;-66
2021/12/16 11:46:53;;;;;;;12.35;7.10;;;;;;;9.04;100.00;100744.92;1752678;80;21084;-65
2021/12/16 11:49:36;;;;;;;7.47;4.95;;;;;;;8.88;100.00;100753.02;1756441;79;21068;-67
2021/12/16 11:52:24;;;;;;;9.05;5.10;;;;;;;9.10;100.00;100736.48;1754997;80;22160;-65
2021/12/16 11:54:57;;;;;;;8.88;5.08;;;;;;;8.87;100.00;100738.41;1704765;82;21054;-71
2021/12/16 11:57:33;;;;;;;8.95;5.45;;;;;;;9.13;100.00;100729.64;1751834;80;22410;-67
2021/12/16 12:00:19;;;;;;;8.80;5.40;;;;;;;9.16;100.00;100726.72;1728929;82;21027;-71
2021/12/16 12:02:52;;;;;;;7.83;4.28;;;;;;;8.96;100.00;100726.22;1748804;80;20966;-66
2021/12/16 12:05:40;;;;;;;7.25;4.08;;;;;;;9.13;100.00;100720.53;1768537;80;21133;-65
2021/12/16 12:08:23;;;;;;;6.83;4.28;;;;;;;9.13;100.00;100727.03;1740094;80;21037;-66
2021/12/16 12:11:06;;;;;;;7.72;4.65;;;;;;;9.15;100.00;100723.31;1739499;82;22117;-65
2021/12/16 12:13:41;;;;;;;9.08;4.92;;;;;;;9.34;100.00;100719.57;1735575;81;21085;-66
2021/12/16 12:16:12;;;;;;;9.33;5.42;;;;;;;9.20;100.00;100715.02;1723806;81;21415;-66
2021/12/16 12:18:51;;;;;;;11.83;5.30;;;;;;;9.34;100.00;100701.85;1737400;81;21186;-69
2021/12/16 12:21:48;;;;;;;10.45;6.60;;;;;;;9.37;100.00;100708.84;1739265;81;21475;-67
2021/12/16 12:24:21;;;;;;;13.32;7.95;;;;;;;9.19;100.00;100706.89;1738598;80;21022;-67
2021/12/16 12:26:53;;;;;;;11.15;6.60;;;;;;;9.15;100.00;100708.20;1717032;82;21146;-68
2021/12/16 12:29:28;;;;;;;9.68;5.87;;;;;;;9.41;100.00;100707.53;1736930;81;20928;-68
2021/12/16 12:32:04;;;;;;;9.48;5.42;;;;;;;9.12;100.00;100709.32;1736566;82;21178;-65
2021/12/16 12:34:32;;;;;;;17.30;11.65;;;;;;;9.38;100.00;100705.75;1718916;82;21082;-68
2021/12/16 12:37:01;;;;;;;13.13;9.15;;;;;;;9.36;100.00;100696.01;1737197;81;21082;-70
2021/12/16 12:39:36;;;;;;;15.55;9.73;;;;;;;9.33;100.00;100697.14;1736481;81;21045;-67
2021/12/16 12:42:04;;;;;;;7.85;4.60;;;;;;;9.42;100.00;100694.03;1735559;81;21573;-67
2021/12/16 12:44:32;;;;;;;7.28;4.67;;;;;;;9.42;100.00;100691.43;1703645;83;21183;-66
2021/12/16 12:47:05;;;;;;;7.12;4.45;;;;;;;8.89;100.00;100693.55;1710070;83;21014;-68
2021/12/16 12:49:37;;;;;;;6.55;3.62;;;;;;;8.81;100.00;100692.24;1737691;81;21499;-65
2021/12/16 12:52:15;;;;;;;7.72;3.98;;;;;;;8.81;100.00;100687.05;1738334;81;21063;-67
2021/12/16 12:54:45;;;;;;;7.00;4.15;;;;;;;9.00;100.00;100685.92;1725550;82;21003;-67
2021/12/16 12:57:23;;;;;;;5.92;3.45;;;;;;;8.83;100.00;100685.11;1729151;82;21128;-66
2021/12/16 12:59:52;;;;;;;6.50;3.37;;;;;;;8.57;100.00;100691.72;1728726;82;21077;-68
2021/12/16 13:02:28;;;;;;;7.70;4.37;;;;;;;8.64;100.00;100685.41;1725337;82;20943;-65
2021/12/16 13:05:12;;;;;;;7.80;4.35;;;;;;;9.52;100.00;100680.86;1718511;83;20947;-69
2021/12/16 13:07:43;;;;;;;8.25;4.33;;;;;;;9.10;100.00;100678.78;1716943;82;22482;-66
2021/12/16 13:10:14;;;;;;;;;;;;;;;9.09;100.00;100676.33;1709268;82;21174;-66
2021/12/16 13:13:01;;;;;;;7.08;3.67;;;;;;;9.05;100.00;100671.13;1719470;83;20151;-67
2021/12/16 13:15:35;;;;;;;8.53;4.92;;;;;;;9.04;100.00;100667.72;1725190;83;21002;-67
2021/12/16 13:23:54;;;;;;;6.65;3.77;;;;;;;8.87;100.00;100672.11;1719721;82;21138;-68
2021/12/16 13:29:27;;;;;;;8.50;4.20;;;;;;;9.42;98.37;100662.81;1718778;83;20990;-67
2021/12/16 13:32:04;;;;;;;6.03;3.50;;;;;;;9.41;96.17;100658.09;1701146;83;21018;-65
2021/12/16 13:34:43;;;;;;;6.28;3.42;;;;;;;8.81;100.00;100658.94;1688342;83;20983;-68
2021/12/16 13:37:23;;;;;;;6.83;4.05;;;;;;;8.56;100.00;100667.18;1711678;83;21133;-68
2021/12/16 13:39:56;;;;;;;9.83;4.47;;;;;;;8.51;100.00;100653.38;1718959;83;21065;-65
2021/12/16 13:42:25;;;;;;;9.28;5.78;;;;;;;8.72;100.00;100646.44;1718646;83;21019;-65
2021/12/16 13:45:04;;;;;;;9.15;5.42;;;;;;;8.85;100.00;100652.44;1718559;82;21902;-63
2021/12/16 14:02:35;;;;;;;9.98;5.87;;;;;;;8.44;100.00;100664.88;1716775;83;21043;-69
2021/12/16 14:10:12;;;;;;;13.05;7.22;;;;;;;8.53;100.00;100645.75;1719065;82;21114;-68
2021/12/16 14:15:24;;;;;;;13.45;5.95;;;;;;;8.39;100.00;100633.38;1706066;83;21336;-69
2021/12/16 14:18:03;;;;;;;9.98;5.62;;;;;;;7.82;100.00;100636.25;1682737;83;21218;-70
2021/12/16 14:23:34;;;;;;;10.53;5.55;;;;;;;7.63;100.00;100642.48;1718420;83;21561;-69
2021/12/16 14:37:30;;;;;;;9.50;4.97;;;;;;;8.23;100.00;100638.52;1719324;83;20983;-69
2021/12/16 14:42:49;;;;;;;11.85;7.45;;;;;;;8.59;100.00;100635.69;1719834;82;21086;-69
2021/12/16 14:45:30;;;;;;;12.30;6.97;;;;;;;8.18;100.00;100640.30;1718783;83;21175;-69
2021/12/16 14:48:09;;;;;;;10.82;6.58;;;;;;;8.10;100.00;100642.03;1718485;83;21074;-68
2021/12/16 14:50:37;;;;;;;11.25;6.33;;;;;;;8.08;100.00;100631.81;1715225;83;21043;-68
2021/12/16 14:53:31;;;;;;;10.58;6.05;;;;;;;8.35;100.00;100624.25;1715272;82;21510;-68
2021/12/16 14:56:09;;;;;;;11.57;6.42;;;;;;;8.34;100.00;100627.02;1719161;83;21540;-68